createdAt,value
2018-05-31T12:00:25.112Z,29.20
2018-05-31T12:04:04.939Z,29.20
2018-05-31T12:06:35.354Z,29.30
2018-05-31T12:09:06.519Z,29.30
2018-05-31T12:11:36.711Z,29.40
2018-05-31T12:14:06.762Z,29.20
2018-05-31T12:16:37.121Z,29.20
2018-05-31T12:19:08.016Z,29.30
2018-05-31T12:21:38.454Z,29.40
2018-05-31T12:24:08.756Z,29.50
2018-05-31T12:26:40.460Z,29.60
2018-05-31T12:29:11.498Z,29.60
2018-05-31T12:31:41.421Z,29.60
2018-05-31T12:34:28.603Z,29.50
2018-05-31T12:37:10.999Z,29.50
2018-05-31T12:39:41.712Z,29.60
2018-05-31T12:42:12.478Z,29.70
2018-05-31T12:44:42.680Z,29.70
2018-05-31T12:47:14.144Z,29.70
2018-05-31T12:49:45.023Z,29.80
2018-05-31T12:52:24.493Z,30.10
2018-05-31T12:54:55.102Z,30.10
2018-05-31T12:57:28.302Z,30.30
2018-05-31T12:59:58.899Z,30.30
2018-05-31T13:02:31.117Z,30.60
2018-05-31T13:05:02.684Z,30.60
2018-05-31T13:07:33.405Z,30.60
2018-05-31T13:10:04.420Z,30.70
2018-05-31T13:12:35.439Z,30.80
2018-05-31T13:15:06.941Z,31.00
2018-05-31T13:17:45.839Z,31.00
2018-05-31T13:20:17.806Z,31.00
2018-05-31T13:22:48.660Z,31.00
2018-05-31T13:25:19.625Z,31.00
2018-05-31T13:28:12.356Z,30.90
2018-05-31T13:31:07.283Z,30.90
2018-05-31T13:33:56.081Z,30.80
2018-05-31T13:36:26.945Z,30.80
2018-05-31T13:38:58.163Z,31.00
2018-05-31T13:41:29.078Z,31.10
2018-05-31T13:43:59.888Z,31.20
2018-05-31T13:46:56.133Z,31.50
2018-05-31T13:49:28.359Z,31.60
2018-05-31T13:51:58.791Z,31.60
2018-05-31T13:54:29.437Z,31.80
2018-05-31T13:57:01.729Z,32.00
2018-05-31T13:59:33.476Z,32.10
2018-05-31T14:02:05.745Z,32.20
2018-05-31T14:04:36.787Z,32.30
2018-05-31T14:07:08.680Z,32.40
2018-05-31T14:09:39.479Z,32.50
2018-05-31T14:12:09.886Z,32.50
2018-05-31T14:14:40.700Z,32.60
2018-05-31T14:17:13.018Z,32.60
2018-05-31T14:19:45.434Z,32.60
2018-05-31T14:22:15.676Z,32.70
2018-05-31T14:24:48.651Z,32.90
2018-05-31T14:27:19.545Z,33.00
2018-05-31T14:29:52.965Z,33.10
2018-05-31T14:32:25.277Z,33.40
2018-05-31T14:34:57.090Z,33.40
2018-05-31T14:37:28.408Z,33.40
2018-05-31T14:39:58.660Z,33.40
2018-05-31T14:42:29.108Z,32.90
2018-05-31T14:45:01.736Z,32.10
2018-05-31T14:47:34.219Z,32.00
2018-05-31T14:50:05.094Z,31.90
2018-05-31T14:52:42.095Z,31.80
2018-05-31T14:55:14.362Z,31.80
2018-05-31T14:57:44.798Z,31.80
2018-05-31T15:00:17.969Z,31.60
2018-05-31T15:02:49.176Z,31.60
2018-05-31T15:05:30.954Z,31.60
2018-05-31T15:08:08.985Z,31.80
2018-05-31T15:10:39.782Z,32.00
2018-05-31T15:13:10.335Z,32.40
2018-05-31T15:15:41.847Z,32.90
2018-05-31T15:18:12.832Z,33.00
2018-05-31T15:20:43.521Z,32.60
2018-05-31T15:23:14.343Z,31.90
2018-05-31T15:25:46.444Z,31.30
2018-05-31T15:28:17.295Z,30.70
2018-05-31T15:30:48.844Z,30.20
2018-05-31T15:33:20.024Z,29.90
2018-05-31T15:35:58.960Z,29.70
2018-05-31T15:38:30.546Z,29.70
2018-05-31T15:41:01.516Z,29.70
2018-05-31T15:43:33.656Z,29.70
2018-05-31T15:46:03.999Z,29.80
2018-05-31T15:48:34.865Z,30.00
2018-05-31T15:51:05.681Z,30.10
2018-05-31T15:53:36.034Z,30.10
2018-05-31T15:56:08.407Z,30.10
2018-05-31T15:58:39.103Z,30.10
2018-05-31T16:01:09.163Z,30.20
2018-05-31T16:03:40.095Z,30.20
2018-05-31T16:06:11.375Z,30.20
2018-05-31T16:08:41.546Z,30.20
2018-05-31T16:11:11.698Z,30.20
2018-05-31T16:13:41.913Z,30.10
2018-05-31T16:16:12.099Z,29.90
2018-05-31T16:18:42.748Z,29.80
2018-05-31T16:21:13.526Z,29.70
2018-05-31T16:23:43.399Z,29.70
2018-05-31T16:26:15.107Z,29.80
2018-05-31T16:28:45.947Z,29.80
2018-05-31T16:31:17.480Z,29.90
2018-05-31T16:33:47.580Z,30.00
2018-05-31T16:36:20.642Z,30.00
2018-05-31T16:38:52.734Z,29.80
2018-05-31T16:41:23.817Z,29.70
2018-05-31T16:43:55.791Z,29.50
2018-05-31T16:46:27.706Z,29.50
2018-05-31T16:49:19.146Z,29.50
2018-05-31T16:51:50.595Z,29.50
2018-05-31T16:54:24.955Z,29.50
2018-05-31T16:56:55.113Z,29.70
2018-05-31T16:59:32.120Z,29.60
2018-05-31T17:02:02.610Z,29.10
2018-05-31T17:04:33.529Z,28.20
2018-05-31T17:07:05.305Z,28.00
2018-05-31T17:09:35.271Z,28.00
2018-05-31T17:12:06.666Z,27.80
2018-05-31T17:14:41.890Z,28.00
2018-05-31T17:17:12.137Z,28.00
2018-05-31T17:19:46.077Z,28.20
2018-05-31T17:22:24.686Z,28.40
2018-05-31T17:24:59.810Z,28.50
2018-05-31T17:27:34.454Z,28.50
2018-05-31T17:30:11.938Z,28.10
2018-05-31T17:32:48.848Z,28.20
2018-05-31T17:35:44.825Z,28.10
2018-05-31T17:38:24.974Z,28.10
2018-05-31T17:40:56.441Z,28.10
2018-05-31T17:43:28.115Z,28.10
2018-05-31T17:46:00.911Z,28.10
2018-05-31T17:48:36.612Z,28.10
2018-05-31T17:51:16.500Z,27.10
2018-05-31T17:53:51.929Z,25.20
2018-05-31T17:56:24.702Z,25.20
2018-05-31T17:58:57.851Z,25.40
2018-05-31T18:01:29.325Z,25.70
2018-05-31T18:04:01.809Z,25.60
2018-05-31T18:06:33.570Z,25.60
2018-05-31T18:09:03.534Z,25.20
2018-05-31T18:11:34.525Z,25.20
2018-05-31T18:14:04.767Z,25.40
2018-05-31T18:16:34.834Z,25.80
2018-05-31T18:19:06.054Z,26.40
2018-05-31T18:21:41.392Z,26.30
2018-05-31T18:24:12.294Z,26.50
2018-05-31T18:26:42.556Z,26.70
2018-05-31T18:29:13.262Z,26.80
2018-05-31T18:31:44.051Z,26.90
2018-05-31T18:34:14.475Z,27.00
2018-05-31T18:36:45.456Z,27.20
2018-05-31T18:39:17.348Z,27.20
2018-05-31T18:41:47.345Z,27.30
2018-05-31T18:44:18.298Z,27.40
2018-05-31T18:46:48.151Z,27.50
2018-05-31T18:49:20.278Z,27.60
2018-05-31T18:51:58.425Z,27.50
2018-05-31T18:54:28.784Z,27.60
2018-05-31T18:56:58.801Z,27.60
2018-05-31T18:59:33.183Z,27.60
2018-05-31T19:02:04.651Z,27.60
2018-05-31T19:04:36.531Z,27.70
2018-05-31T19:07:09.768Z,27.70
2018-05-31T19:09:40.317Z,27.70
2018-05-31T19:12:10.485Z,27.70
2018-05-31T19:14:40.936Z,27.70
2018-05-31T19:17:18.112Z,27.70
2018-05-31T19:20:06.080Z,27.70
2018-05-31T19:22:37.054Z,27.70
2018-05-31T19:25:27.622Z,27.70
2018-05-31T19:28:10.305Z,27.70
2018-05-31T19:31:28.515Z,27.70
2018-05-31T19:34:09.719Z,27.70
2018-05-31T19:36:45.265Z,27.60
2018-05-31T19:39:16.688Z,27.60
2018-05-31T19:41:46.957Z,27.50
2018-05-31T19:44:52.192Z,27.30
2018-05-31T19:47:24.452Z,27.30
2018-05-31T19:49:54.595Z,27.10
2018-05-31T19:52:30.394Z,26.60
2018-05-31T19:55:00.616Z,26.60
2018-05-31T19:57:30.985Z,26.50
2018-05-31T20:00:06.920Z,26.50
2018-05-31T20:04:47.026Z,26.50
2018-05-31T20:07:18.503Z,26.60
2018-05-31T20:09:49.528Z,26.60
2018-05-31T20:12:22.346Z,26.60
2018-05-31T20:14:54.509Z,26.50
2018-05-31T20:17:25.451Z,26.40
2018-05-31T20:19:55.943Z,26.40
2018-05-31T20:22:26.830Z,26.30
2018-05-31T20:24:57.039Z,26.20
2018-05-31T20:27:27.510Z,26.20
2018-05-31T20:29:58.586Z,26.10
2018-05-31T20:32:29.095Z,26.10
2018-05-31T20:35:20.911Z,26.10
2018-05-31T20:38:02.788Z,26.30
2018-05-31T20:40:34.745Z,26.30
2018-05-31T20:43:05.939Z,26.40
2018-05-31T20:45:36.936Z,26.40
2018-05-31T20:48:08.821Z,26.50
2018-05-31T20:50:42.843Z,26.50
2018-05-31T20:53:14.410Z,26.50
2018-05-31T20:55:45.126Z,26.50
2018-05-31T20:58:16.866Z,26.50
2018-05-31T21:00:49.505Z,26.50
2018-05-31T21:03:24.107Z,26.50
2018-05-31T21:05:55.920Z,26.40
2018-05-31T21:08:27.472Z,26.40
2018-05-31T21:10:58.927Z,26.40
2018-05-31T21:13:31.117Z,26.40
2018-05-31T21:16:06.574Z,26.40
2018-05-31T21:18:38.038Z,26.40
2018-05-31T21:21:09.926Z,26.40
2018-05-31T21:23:42.535Z,26.40
2018-05-31T21:26:14.240Z,26.30
2018-05-31T21:28:52.556Z,26.40
2018-05-31T21:31:34.551Z,26.40
2018-05-31T21:34:20.118Z,26.40
2018-05-31T21:37:02.253Z,26.30
2018-05-31T21:39:36.045Z,26.30
2018-05-31T21:42:06.888Z,26.20
2018-05-31T21:44:37.835Z,26.30
2018-05-31T21:47:09.294Z,26.30
2018-05-31T21:49:40.685Z,26.20
2018-05-31T21:52:11.745Z,26.20
2018-05-31T21:54:42.795Z,26.30
2018-05-31T21:57:16.795Z,26.30
2018-05-31T21:59:47.720Z,26.30
2018-05-31T22:02:19.666Z,26.30
2018-05-31T22:04:56.271Z,26.30
2018-05-31T22:07:29.150Z,26.30
2018-05-31T22:10:00.237Z,26.30
2018-05-31T22:12:32.127Z,26.30
2018-05-31T22:15:02.685Z,26.30
2018-05-31T22:17:34.159Z,26.30
2018-05-31T22:20:06.370Z,26.30
2018-05-31T22:22:38.171Z,26.20
2018-05-31T22:25:10.427Z,26.30
2018-05-31T22:27:42.451Z,26.30
2018-05-31T22:30:13.123Z,26.30
2018-05-31T22:32:44.706Z,26.40
2018-05-31T22:35:17.451Z,26.30
2018-05-31T22:37:49.761Z,26.40
2018-05-31T22:40:20.227Z,26.40
2018-05-31T22:42:58.298Z,26.40
2018-05-31T22:45:30.697Z,26.40
2018-05-31T22:48:03.234Z,26.30
2018-05-31T22:50:34.645Z,26.40
2018-05-31T22:53:05.349Z,26.30
2018-05-31T22:55:35.855Z,26.30
2018-05-31T22:58:19.598Z,26.30
2018-05-31T23:00:51.853Z,26.30
2018-05-31T23:03:24.114Z,26.30
2018-05-31T23:05:57.308Z,26.30
2018-05-31T23:08:33.776Z,26.30
2018-05-31T23:11:05.002Z,26.30
2018-05-31T23:13:50.543Z,26.20
2018-05-31T23:19:14.664Z,26.10
2018-05-31T23:21:45.481Z,26.10
2018-05-31T23:24:17.497Z,26.00
2018-05-31T23:26:48.155Z,26.00
2018-05-31T23:29:19.254Z,26.00
2018-05-31T23:31:52.394Z,25.90
2018-05-31T23:34:31.477Z,25.90
2018-05-31T23:37:06.557Z,25.90
2018-05-31T23:39:38.233Z,25.90
2018-05-31T23:42:09.013Z,25.90
2018-05-31T23:44:40.426Z,25.80
2018-05-31T23:47:11.088Z,25.80
2018-05-31T23:49:41.667Z,25.80
2018-05-31T23:52:13.333Z,25.80
2018-05-31T23:54:45.607Z,25.80
2018-05-31T23:57:16.234Z,25.80
2018-05-31T23:59:46.833Z,25.80
